createdAt,value
2018-01-10T00:00:23.909Z,-12.06
2018-01-10T00:01:33.988Z,-12.08
2018-01-10T00:02:43.789Z,-12.08
2018-01-10T00:03:53.874Z,-12.09
2018-01-10T00:05:03.960Z,-12.16
2018-01-10T00:06:14.046Z,-12.18
2018-01-10T00:07:24.126Z,-12.18
2018-01-10T00:08:33.981Z,-12.23
2018-01-10T00:09:43.782Z,-12.21
2018-01-10T00:10:53.858Z,-12.32
2018-01-10T00:12:03.930Z,-12.31
2018-01-10T00:13:14.015Z,-12.31
2018-01-10T00:14:24.187Z,-12.38
2018-01-10T00:15:34.265Z,-12.45
2018-01-10T00:16:44.337Z,-12.46
2018-01-10T00:17:54.413Z,-12.49
2018-01-10T00:19:04.488Z,-12.55
2018-01-10T00:20:14.294Z,-12.49
2018-01-10T00:21:24.366Z,-12.58
2018-01-10T00:22:34.178Z,-12.64
2018-01-10T00:23:44.252Z,-12.62
2018-01-10T00:24:54.331Z,-12.69
2018-01-10T00:26:04.412Z,-12.63
2018-01-10T00:27:14.487Z,-12.69
2018-01-10T00:28:24.572Z,-12.63
2018-01-10T00:29:34.374Z,-12.66
2018-01-10T00:30:44.451Z,-12.67
2018-01-10T00:31:54.529Z,-12.74
2018-01-10T00:33:04.606Z,-12.77
2018-01-10T00:34:14.681Z,-12.81
2018-01-10T00:35:24.766Z,-12.82
2018-01-10T00:36:34.848Z,-12.8
2018-01-10T00:37:44.650Z,-12.67
2018-01-10T00:38:54.726Z,-12.7
2018-01-10T00:40:04.530Z,-12.77
2018-01-10T00:41:14.340Z,-12.84
2018-01-10T00:42:24.417Z,-12.77
2018-01-10T00:43:34.489Z,-12.72
2018-01-10T00:44:44.569Z,-12.8
2018-01-10T00:45:54.650Z,-12.69
2018-01-10T00:47:04.722Z,-12.72
2018-01-10T00:48:14.798Z,-12.64
2018-01-10T00:49:24.602Z,-12.87
2018-01-10T00:50:34.137Z,-12.85
2018-01-10T00:51:44.212Z,-12.6
2018-01-10T00:52:54.288Z,-12.7
2018-01-10T00:54:04.363Z,-12.73
2018-01-10T00:55:14.439Z,-12.72
2018-01-10T00:56:24.514Z,-12.66
2018-01-10T00:57:34.599Z,-12.66
2018-01-10T00:58:44.675Z,-12.69
2018-01-10T00:59:54.487Z,-12.66
2018-01-10T01:01:04.610Z,-12.67
2018-01-10T01:02:14.144Z,-12.66
2018-01-10T01:03:24.218Z,-12.82
2018-01-10T01:04:34.023Z,-12.8
2018-01-10T01:05:43.826Z,-12.84
2018-01-10T01:06:54.046Z,-12.84
2018-01-10T01:08:04.123Z,-12.84
2018-01-10T01:09:13.929Z,-12.92
2018-01-10T01:10:24.004Z,-12.87
2018-01-10T01:11:34.082Z,-12.9
2018-01-10T01:12:44.161Z,-12.91
2018-01-10T01:13:53.692Z,-12.87
2018-01-10T01:15:03.773Z,-12.85
2018-01-10T01:16:13.346Z,-12.87
2018-01-10T01:17:23.166Z,-12.84
2018-01-10T01:18:33.289Z,-12.88
2018-01-10T01:19:43.096Z,-12.87
2018-01-10T01:20:53.166Z,-12.84
2018-01-10T01:22:03.237Z,-12.88
2018-01-10T01:23:13.047Z,-12.87
2018-01-10T01:24:23.223Z,-12.92
2018-01-10T01:25:33.294Z,-12.9
2018-01-10T01:26:43.364Z,-12.87
2018-01-10T01:27:53.168Z,-12.87
2018-01-10T01:29:03.244Z,-12.88
2018-01-10T01:30:13.323Z,-12.76
2018-01-10T01:31:23.395Z,-12.72
2018-01-10T01:32:33.467Z,-12.72
2018-01-10T01:33:43.540Z,-12.72
2018-01-10T01:34:53.608Z,-12.73
2018-01-10T01:36:03.681Z,-12.69
2018-01-10T01:37:13.759Z,-12.67
2018-01-10T01:38:23.835Z,-12.64
2018-01-10T01:39:33.638Z,-12.66
2018-01-10T01:40:43.170Z,-12.69
2018-01-10T01:41:53.059Z,-12.69
2018-01-10T01:43:03.135Z,-12.72
2018-01-10T01:44:12.940Z,-12.67
2018-01-10T01:45:23.023Z,-12.77
2018-01-10T01:46:32.824Z,-12.73
2018-01-10T01:47:42.358Z,-12.81
2018-01-10T01:48:52.155Z,-12.9
2018-01-10T01:50:02.232Z,-12.85
2018-01-10T01:51:12.305Z,-12.99
2018-01-10T01:52:22.117Z,-13.02
2018-01-10T01:53:32.202Z,-13.17
2018-01-10T01:54:41.731Z,-13.05
2018-01-10T01:55:51.802Z,-13.09
2018-01-10T01:57:01.901Z,-13.12
2018-01-10T01:58:11.974Z,-13.13
2018-01-10T01:59:22.048Z,-13.15
2018-01-10T02:00:31.855Z,-13.17
2018-01-10T02:01:41.927Z,-13.17
2018-01-10T02:02:51.729Z,-13.15
2018-01-10T02:04:01.808Z,-13.06
2018-01-10T02:05:11.904Z,-13.13
2018-01-10T02:06:21.707Z,-13.11
2018-01-10T02:07:31.815Z,-13.05
2018-01-10T02:08:41.357Z,-13.08
2018-01-10T02:09:51.429Z,-13.12
2018-01-10T02:11:01.508Z,-13.19
2018-01-10T02:12:11.590Z,-13.15
2018-01-10T02:13:21.393Z,-13.15
2018-01-10T02:14:31.467Z,-13.2
2018-01-10T02:15:40.998Z,-13.3
2018-01-10T02:16:51.069Z,-13.3
2018-01-10T02:18:01.145Z,-13.24
2018-01-10T02:19:10.675Z,-13.33
2018-01-10T02:20:20.757Z,-13.33
2018-01-10T02:21:30.838Z,-13.4
2018-01-10T02:22:40.373Z,-13.33
2018-01-10T02:23:50.218Z,-13.43
2018-01-10T02:25:00.291Z,-13.43
2018-01-10T02:26:10.091Z,-13.45
2018-01-10T02:27:19.894Z,-13.43
2018-01-10T02:28:29.965Z,-13.45
2018-01-10T02:29:39.777Z,-13.41
2018-01-10T02:30:49.857Z,-13.43
2018-01-10T02:31:59.935Z,-13.47
2018-01-10T02:33:09.470Z,-13.47
2018-01-10T02:34:19.542Z,-13.56
2018-01-10T02:35:29.342Z,-13.56
2018-01-10T02:36:39.412Z,-13.59
2018-01-10T02:37:49.570Z,-13.61
2018-01-10T02:38:59.642Z,-13.62
2018-01-10T02:40:09.440Z,-13.58
2018-01-10T02:41:19.513Z,-13.61
2018-01-10T02:42:29.315Z,-13.59
2018-01-10T02:43:38.852Z,-13.59
2018-01-10T02:44:48.387Z,-13.51
2018-01-10T02:45:58.507Z,-13.54
2018-01-10T02:47:08.351Z,-13.61
2018-01-10T02:48:18.152Z,-13.5
2018-01-10T02:49:28.217Z,-13.54
2018-01-10T02:50:38.285Z,-13.58
2018-01-10T02:51:48.502Z,-13.7
2018-01-10T02:52:58.578Z,-13.68
2018-01-10T02:54:08.658Z,-13.77
2018-01-10T02:55:18.459Z,-13.64
2018-01-10T02:56:28.528Z,-13.61
2018-01-10T02:57:38.596Z,-13.61
2018-01-10T02:58:48.665Z,-13.59
2018-01-10T02:59:58.740Z,-13.55
2018-01-10T03:01:08.321Z,-13.56
2018-01-10T03:02:18.393Z,-13.56
2018-01-10T03:03:28.465Z,-13.54
2018-01-10T03:04:38.531Z,-13.54
2018-01-10T03:05:48.603Z,-13.47
2018-01-10T03:06:58.680Z,-13.44
2018-01-10T03:08:08.485Z,-13.37
2018-01-10T03:09:18.344Z,-13.35
2018-01-10T03:10:28.418Z,-13.3
2018-01-10T03:11:38.231Z,-13.35
2018-01-10T03:12:48.040Z,-13.37
2018-01-10T03:13:58.112Z,-13.44
2018-01-10T03:15:07.913Z,-13.5
2018-01-10T03:16:17.997Z,-13.56
2018-01-10T03:17:28.070Z,-13.65
2018-01-10T03:18:37.914Z,-13.7
2018-01-10T03:19:47.995Z,-13.7
2018-01-10T03:20:58.066Z,-13.66
2018-01-10T03:22:07.594Z,-13.78
2018-01-10T03:23:17.667Z,-13.74
2018-01-10T03:24:27.752Z,-13.77
2018-01-10T03:25:37.279Z,-13.8
2018-01-10T03:26:47.080Z,-13.78
2018-01-10T03:27:57.159Z,-13.77
2018-01-10T03:29:07.288Z,-13.78
2018-01-10T03:30:17.365Z,-13.76
2018-01-10T03:31:27.183Z,-13.77
2018-01-10T03:32:37.367Z,-13.77
2018-01-10T03:33:47.387Z,-13.76
2018-01-10T03:34:57.355Z,-13.64
2018-01-10T03:36:07.061Z,-13.78
2018-01-10T03:37:17.033Z,-13.77
2018-01-10T03:38:26.738Z,-13.78
2018-01-10T03:39:36.185Z,-13.9
2018-01-10T03:40:46.159Z,-13.92
2018-01-10T03:41:55.862Z,-13.92
2018-01-10T03:43:05.566Z,-13.97
2018-01-10T03:44:15.537Z,-13.92
2018-01-10T03:45:25.507Z,-13.88
2018-01-10T03:46:35.482Z,-13.84
2018-01-10T03:47:45.449Z,-13.87
2018-01-10T03:48:55.156Z,-13.86
2018-01-10T03:50:05.131Z,-13.87
2018-01-10T03:51:14.835Z,-13.9
2018-01-10T03:52:24.541Z,-13.95
2018-01-10T03:53:34.516Z,-14.04
2018-01-10T03:54:44.484Z,-13.99
2018-01-10T03:55:54.460Z,-14.01
2018-01-10T03:57:04.162Z,-13.99
2018-01-10T03:58:14.134Z,-14.02
2018-01-10T03:59:24.105Z,-14.04
2018-01-10T04:03:26.988Z,-13.98
2018-01-10T04:04:36.458Z,-14.05
2018-01-10T04:05:46.431Z,-14.09
2018-01-10T04:06:56.136Z,-14.12
2018-01-10T04:08:06.110Z,-14.01
2018-01-10T04:09:16.080Z,-13.95
2018-01-10T04:10:26.051Z,-13.99
2018-01-10T04:11:35.755Z,-14.01
2018-01-10T04:12:45.726Z,-13.97
2018-01-10T04:13:55.697Z,-13.97
2018-01-10T04:15:05.140Z,-13.98
2018-01-10T04:16:14.847Z,-13.95
2018-01-10T04:17:24.548Z,-13.9
2018-01-10T04:18:34.517Z,-13.81
2018-01-10T04:19:44.485Z,-13.84
2018-01-10T04:20:54.458Z,-13.74
2018-01-10T04:22:04.435Z,-13.77
2018-01-10T04:23:14.146Z,-13.77
2018-01-10T04:24:24.120Z,-13.77
2018-01-10T04:25:33.822Z,-13.84
2018-01-10T04:26:43.531Z,-13.94
2018-01-10T04:27:53.232Z,-13.95
2018-01-10T04:29:02.939Z,-13.98
2018-01-10T04:30:12.646Z,-13.88
2018-01-10T04:31:22.352Z,-13.9
2018-01-10T04:32:32.325Z,-13.95
2018-01-10T04:33:42.030Z,-13.88
2018-01-10T04:34:51.734Z,-13.94
2018-01-10T04:36:01.436Z,-13.74
2018-01-10T04:37:11.403Z,-13.81
2018-01-10T04:38:21.423Z,-13.66
2018-01-10T04:39:31.390Z,-13.64
2018-01-10T04:40:40.828Z,-13.65
2018-01-10T04:41:50.539Z,-13.66
2018-01-10T04:43:00.510Z,-13.64
2018-01-10T04:44:10.543Z,-13.68
2018-01-10T04:45:20.514Z,-13.7
2018-01-10T04:46:30.495Z,-13.64
2018-01-10T04:47:40.467Z,-13.51
2018-01-10T04:48:50.174Z,-13.58
2018-01-10T04:49:59.876Z,-13.56
2018-01-10T04:51:09.852Z,-13.59
2018-01-10T04:52:19.565Z,-13.61
2018-01-10T04:53:29.545Z,-13.58
2018-01-10T04:54:39.246Z,-13.74
2018-01-10T04:55:48.943Z,-13.65
2018-01-10T04:56:58.911Z,-13.76
2018-01-10T04:58:08.889Z,-13.78
2018-01-10T04:59:18.857Z,-13.81
2018-01-10T05:00:28.836Z,-13.81
2018-01-10T05:01:38.543Z,-13.95
2018-01-10T05:02:48.250Z,-13.92
2018-01-10T05:03:57.951Z,-14.01
2018-01-10T05:05:07.673Z,-14.01
2018-01-10T05:06:17.639Z,-14.04
2018-01-10T05:07:27.605Z,-14.15
2018-01-10T05:08:37.573Z,-14.15
2018-01-10T05:09:47.539Z,-14.13
2018-01-10T05:10:57.516Z,-14.15
2018-01-10T05:12:07.218Z,-14.19
2018-01-10T05:13:17.287Z,-14.08
2018-01-10T05:14:27.288Z,-14.16
2018-01-10T05:15:37.291Z,-14.13
2018-01-10T05:16:47.267Z,-13.99
2018-01-10T05:17:57.236Z,-14.07
2018-01-10T05:19:06.945Z,-14.04
2018-01-10T05:20:16.651Z,-13.98
2018-01-10T05:21:26.620Z,-14.04
2018-01-10T05:22:36.328Z,-13.99
2018-01-10T05:23:46.302Z,-14.01
2018-01-10T05:24:56.062Z,-14.07
2018-01-10T05:26:06.042Z,-14.02
2018-01-10T05:27:15.742Z,-14.04
2018-01-10T05:28:25.714Z,-13.99
2018-01-10T05:29:35.681Z,-14.05
2018-01-10T05:30:45.658Z,-14.02
2018-01-10T05:31:55.636Z,-14.04
2018-01-10T05:33:05.608Z,-13.98
2018-01-10T05:34:15.619Z,-14.04
2018-01-10T05:35:25.586Z,-14.02
2018-01-10T05:36:35.558Z,-13.99
2018-01-10T05:37:45.530Z,-14.08
2018-01-10T05:38:55.499Z,-13.99
2018-01-10T05:40:05.213Z,-13.95
2018-01-10T05:41:15.189Z,-13.87
2018-01-10T05:42:25.156Z,-13.78
2018-01-10T05:43:35.129Z,-13.76
2018-01-10T05:44:45.145Z,-13.7
2018-01-10T05:45:55.123Z,-13.64
2018-01-10T05:47:05.091Z,-13.64
2018-01-10T05:48:15.061Z,-13.66
2018-01-10T05:49:24.785Z,-13.64
2018-01-10T05:50:34.761Z,-13.66
2018-01-10T05:51:44.468Z,-13.66
2018-01-10T05:52:54.172Z,-13.76
2018-01-10T05:54:04.143Z,-13.72
2018-01-10T05:55:13.580Z,-13.64
2018-01-10T05:56:23.553Z,-13.58
2018-01-10T05:57:33.529Z,-13.55
2018-01-10T05:58:43.503Z,-13.61
2018-01-10T05:59:53.473Z,-13.54
2018-01-10T06:01:03.453Z,-13.5
2018-01-10T06:02:13.162Z,-13.65
2018-01-10T06:03:23.136Z,-13.64
2018-01-10T06:04:33.110Z,-13.62
2018-01-10T06:05:43.087Z,-13.68
2018-01-10T06:06:53.059Z,-13.66
2018-01-10T06:08:03.032Z,-13.7
2018-01-10T06:09:12.741Z,-13.76
2018-01-10T06:10:22.710Z,-13.64
2018-01-10T06:11:32.683Z,-13.65
2018-01-10T06:12:42.653Z,-13.74
2018-01-10T06:13:52.360Z,-13.78
2018-01-10T06:15:02.067Z,-13.8
2018-01-10T06:16:11.772Z,-13.81
2018-01-10T06:17:21.481Z,-13.8
2018-01-10T06:18:31.450Z,-13.77
2018-01-10T06:19:41.426Z,-13.83
2018-01-10T06:20:51.401Z,-13.83
2018-01-10T06:22:01.107Z,-13.92
2018-01-10T06:23:11.577Z,-13.88
2018-01-10T06:24:21.545Z,-13.97
2018-01-10T06:25:31.526Z,-13.86
2018-01-10T06:26:41.606Z,-13.98
2018-01-10T06:27:51.576Z,-13.98
2018-01-10T06:29:01.283Z,-13.97
2018-01-10T06:30:10.724Z,-13.87
2018-01-10T06:31:20.431Z,-13.9
2018-01-10T06:32:30.411Z,-13.94
2018-01-10T06:33:39.851Z,-13.88
2018-01-10T06:34:49.818Z,-13.87
2018-01-10T06:35:59.786Z,-13.88
2018-01-10T06:37:09.824Z,-13.86
2018-01-10T06:38:19.535Z,-13.88
2018-01-10T06:39:29.243Z,-13.87
2018-01-10T06:40:38.682Z,-13.94
2018-01-10T06:41:48.388Z,-13.88
2018-01-10T06:42:58.355Z,-13.92
2018-01-10T06:44:07.794Z,-13.87
2018-01-10T06:45:17.496Z,-13.86
2018-01-10T06:46:27.472Z,-13.8
2018-01-10T06:47:37.178Z,-13.76
2018-01-10T06:48:47.152Z,-13.8
2018-01-10T06:49:57.131Z,-13.78
2018-01-10T06:51:06.839Z,-13.77
2018-01-10T06:52:16.546Z,-13.78
2018-01-10T06:53:26.512Z,-13.77
2018-01-10T06:54:36.217Z,-13.84
2018-01-10T06:55:46.232Z,-13.76
2018-01-10T06:56:56.206Z,-13.78
2018-01-10T06:58:05.909Z,-13.78
2018-01-10T06:59:15.351Z,-13.83
2018-01-10T07:00:25.322Z,-13.64
2018-01-10T07:01:35.290Z,-13.74
2018-01-10T07:02:45.269Z,-13.55
2018-01-10T07:03:56.642Z,-13.58
2018-01-10T07:05:06.614Z,-13.37
2018-01-10T07:06:16.323Z,-13.43
2018-01-10T07:07:26.296Z,-13.32
2018-01-10T07:08:36.272Z,-13.37
2018-01-10T07:09:46.343Z,-13.24
2018-01-10T07:10:56.315Z,-13.2
2018-01-10T07:12:06.293Z,-13.17
2018-01-10T07:13:16.272Z,-13.15
2018-01-10T07:14:26.240Z,-13.12
2018-01-10T07:15:36.313Z,-13.11
2018-01-10T07:16:46.314Z,-13.11
2018-01-10T07:17:56.296Z,-13.12
2018-01-10T07:19:06.268Z,-13.08
2018-01-10T07:20:16.237Z,-13.03
2018-01-10T07:21:26.215Z,-13.08
2018-01-10T07:22:35.918Z,-12.88
2018-01-10T07:23:45.623Z,-12.9
2018-01-10T07:24:55.323Z,-12.91
2018-01-10T07:26:05.028Z,-12.88
2018-01-10T07:27:15.005Z,-12.88
2018-01-10T07:28:24.979Z,-12.81
2018-01-10T07:29:34.685Z,-12.82
2018-01-10T07:30:44.709Z,-12.84
2018-01-10T07:31:54.688Z,-12.73
2018-01-10T07:33:04.668Z,-12.9
2018-01-10T07:34:14.376Z,-12.88
2018-01-10T07:35:23.815Z,-12.82
2018-01-10T07:36:33.796Z,-12.91
2018-01-10T07:37:43.503Z,-12.87
2018-01-10T07:38:53.209Z,-12.91
2018-01-10T07:40:02.921Z,-12.87
2018-01-10T07:41:12.628Z,-13.02
2018-01-10T07:42:22.651Z,-13.03
2018-01-10T07:43:32.358Z,-12.95
2018-01-10T07:44:41.806Z,-13.06
2018-01-10T07:45:51.517Z,-13.05
2018-01-10T07:47:01.220Z,-13.09
2018-01-10T07:48:10.670Z,-13.05
2018-01-10T07:49:20.377Z,-13.11
2018-01-10T07:50:30.081Z,-13.11
2018-01-10T07:51:40.055Z,-13.13
2018-01-10T07:52:50.071Z,-13.08
2018-01-10T07:53:59.824Z,-13.03
2018-01-10T07:55:09.542Z,-13.19
2018-01-10T07:56:19.514Z,-13.13
2018-01-10T07:57:29.481Z,-13.15
2018-01-10T07:58:39.449Z,-13.15
2018-01-10T07:59:49.426Z,-13.19
2018-01-10T08:00:59.394Z,-13.2
2018-01-10T08:02:09.119Z,-13.24
2018-01-10T08:03:18.838Z,-13.2
2018-01-10T08:04:28.808Z,-13.17
2018-01-10T08:05:38.270Z,-13.22
2018-01-10T08:06:48.241Z,-13.24
2018-01-10T08:07:58.212Z,-13.23
2018-01-10T08:09:08.185Z,-13.24
2018-01-10T08:10:18.166Z,-13.2
2018-01-10T08:11:27.875Z,-13.27
2018-01-10T08:12:37.843Z,-13.29
2018-01-10T08:13:47.811Z,-13.32
2018-01-10T08:14:57.886Z,-13.35
2018-01-10T08:16:07.596Z,-13.43
2018-01-10T08:17:17.569Z,-13.5
2018-01-10T08:18:27.546Z,-13.66
2018-01-10T08:19:36.720Z,-13.65
2018-01-10T08:20:46.690Z,-13.8
2018-01-10T08:21:56.657Z,-13.78
2018-01-10T08:23:06.625Z,-13.92
2018-01-10T08:24:16.333Z,-13.95
2018-01-10T08:25:26.301Z,-13.87
2018-01-10T08:26:36.008Z,-13.86
2018-01-10T08:27:45.717Z,-13.9
2018-01-10T08:28:55.428Z,-13.97
2018-01-10T08:30:04.871Z,-14.01
2018-01-10T08:31:14.841Z,-14.07
2018-01-10T08:32:24.827Z,-14.07
2018-01-10T08:33:34.534Z,-13.99
2018-01-10T08:34:44.503Z,-14.07
2018-01-10T08:35:54.472Z,-14.13
2018-01-10T08:37:04.177Z,-14.18
2018-01-10T08:38:13.889Z,-14.16
2018-01-10T08:39:23.864Z,-14.19
2018-01-10T08:40:33.876Z,-14.16
2018-01-10T08:41:43.841Z,-14.15
2018-01-10T08:42:53.810Z,-14.09
2018-01-10T08:44:03.521Z,-14.13
2018-01-10T08:45:13.494Z,-14.09
2018-01-10T08:46:23.200Z,-14.09
2018-01-10T08:47:32.907Z,-14.12
2018-01-10T08:48:42.689Z,-14.09
2018-01-10T08:49:52.682Z,-14.13
2018-01-10T08:51:02.386Z,-14.12
2018-01-10T08:52:12.357Z,-14.08
2018-01-10T08:53:22.325Z,-14.02
2018-01-10T08:54:32.292Z,-13.98
2018-01-10T08:55:42.261Z,-13.97
2018-01-10T08:56:52.027Z,-13.98
2018-01-10T08:58:01.736Z,-14.01
2018-01-10T08:59:11.752Z,-14.08
2018-01-10T09:00:21.847Z,-14.05
2018-01-10T09:01:31.817Z,-14.05
2018-01-10T09:02:41.262Z,-14.05
2018-01-10T09:03:51.234Z,-14.12
2018-01-10T09:05:01.256Z,-14.08
2018-01-10T09:06:11.225Z,-14.19
2018-01-10T09:07:21.197Z,-14.13
2018-01-10T09:08:31.161Z,-14.13
2018-01-10T09:09:41.134Z,-14.01
2018-01-10T09:10:50.843Z,-13.98
2018-01-10T09:12:00.841Z,-14.04
2018-01-10T09:13:10.551Z,-13.87
2018-01-10T09:14:20.252Z,-13.87
2018-01-10T09:15:29.966Z,-13.86
2018-01-10T09:16:39.140Z,-13.9
2018-01-10T09:17:48.578Z,-13.83
2018-01-10T09:18:58.551Z,-13.77
2018-01-10T09:20:08.524Z,-13.78
2018-01-10T09:21:18.495Z,-13.74
2018-01-10T09:22:27.940Z,-13.77
2018-01-10T09:23:37.645Z,-13.77
2018-01-10T09:24:47.349Z,-13.72
2018-01-10T09:25:57.057Z,-13.64
2018-01-10T09:27:07.035Z,-13.58
2018-01-10T09:28:17.054Z,-13.51
2018-01-10T09:29:26.764Z,-13.54
2018-01-10T09:30:36.477Z,-13.55
2018-01-10T09:31:46.186Z,-13.56
2018-01-10T09:32:55.899Z,-13.59
2018-01-10T09:34:05.914Z,-13.5
2018-01-10T09:35:15.357Z,-13.44
2018-01-10T09:36:25.333Z,-13.38
2018-01-10T09:37:34.774Z,-13.37
2018-01-10T09:38:44.763Z,-13.41
2018-01-10T09:39:54.804Z,-13.37
2018-01-10T09:41:04.780Z,-13.29
2018-01-10T09:42:14.756Z,-13.35
2018-01-10T09:43:24.739Z,-13.29
2018-01-10T09:44:34.737Z,-13.22
2018-01-10T09:45:44.734Z,-13.01
2018-01-10T09:46:54.712Z,-13.03
2018-01-10T09:48:04.418Z,-12.85
2018-01-10T09:49:13.860Z,-12.9
2018-01-10T09:50:23.832Z,-12.87
2018-01-10T09:51:33.537Z,-12.88
2018-01-10T09:52:43.610Z,-12.82
2018-01-10T09:53:53.583Z,-12.77
2018-01-10T09:55:03.288Z,-12.76
2018-01-10T09:56:13.267Z,-12.84
2018-01-10T09:57:23.238Z,-12.69
2018-01-10T09:58:33.216Z,-12.74
2018-01-10T09:59:43.189Z,-12.69
2018-01-10T10:00:53.165Z,-12.67
2018-01-10T10:02:03.133Z,-12.7
2018-01-10T10:03:12.844Z,-12.69
2018-01-10T10:04:22.556Z,-12.74
2018-01-10T10:05:32.264Z,-12.62
2018-01-10T10:06:41.976Z,-12.58
2018-01-10T10:07:51.679Z,-12.58
2018-01-10T10:09:01.653Z,-12.62
2018-01-10T10:10:11.366Z,-12.58
2018-01-10T10:11:21.384Z,-12.6
2018-01-10T10:12:31.093Z,-12.51
2018-01-10T10:13:41.062Z,-12.58
2018-01-10T10:14:51.038Z,-12.55
2018-01-10T10:16:01.053Z,-12.49
2018-01-10T10:17:10.498Z,-12.49
2018-01-10T10:18:20.202Z,-12.43
2018-01-10T10:19:29.912Z,-12.49
2018-01-10T10:20:39.616Z,-12.37
2018-01-10T10:21:49.591Z,-12.32
2018-01-10T10:22:59.297Z,-12.28
2018-01-10T10:24:09.015Z,-12.18
2018-01-10T10:25:18.723Z,-12.1
2018-01-10T10:26:28.428Z,-11.98
2018-01-10T10:27:38.232Z,-11.88
2018-01-10T10:28:48.203Z,-11.84
2018-01-10T10:29:58.180Z,-11.87
2018-01-10T10:31:07.621Z,-11.77
2018-01-10T10:32:17.600Z,-11.74
2018-01-10T10:33:27.576Z,-11.66
2018-01-10T10:34:37.568Z,-11.59
2018-01-10T10:35:47.544Z,-11.56
2018-01-10T10:36:57.519Z,-11.53
2018-01-10T10:38:07.544Z,-11.44
2018-01-10T10:39:17.571Z,-11.38
2018-01-10T10:40:27.543Z,-11.37
2018-01-10T10:41:37.524Z,-11.32
2018-01-10T10:42:47.496Z,-11.18
2018-01-10T10:43:57.469Z,-11.1
2018-01-10T10:45:07.182Z,-11.05
2018-01-10T10:46:16.889Z,-11
2018-01-10T10:47:26.864Z,-10.81
2018-01-10T10:48:36.576Z,-10.73
2018-01-10T10:49:46.553Z,-10.49
2018-01-10T10:50:56.539Z,-10.42
2018-01-10T10:52:06.002Z,-10.23
2018-01-10T10:53:15.181Z,-10.1
2018-01-10T10:54:25.162Z,-10.05
2018-01-10T10:55:34.608Z,-10.03
2018-01-10T10:56:44.374Z,-9.81
2018-01-10T10:57:54.356Z,-9.79
2018-01-10T10:59:04.068Z,-9.65
2018-01-10T11:00:13.778Z,-9.49
2018-01-10T11:01:23.488Z,-9.45
2018-01-10T11:02:33.196Z,-9.3
2018-01-10T11:03:42.907Z,-9.09
2018-01-10T11:04:52.899Z,-9.03
2018-01-10T11:06:02.876Z,-9.03
2018-01-10T11:07:12.863Z,-9.06
2018-01-10T11:08:22.997Z,-8.96
2018-01-10T11:09:32.706Z,-8.82
2018-01-10T11:10:42.417Z,-8.84
2018-01-10T11:11:52.398Z,-8.68
2018-01-10T11:13:02.385Z,-8.74
2018-01-10T11:14:12.367Z,-8.65
2018-01-10T11:15:22.355Z,-8.71
2018-01-10T11:16:32.067Z,-8.65
2018-01-10T11:17:41.569Z,-8.67
2018-01-10T11:18:51.279Z,-8.57
2018-01-10T11:20:01.258Z,-8.56
2018-01-10T11:21:11.243Z,-8.5
2018-01-10T11:22:21.216Z,-8.41
2018-01-10T11:23:31.201Z,-8.44
2018-01-10T11:24:40.913Z,-8.49
2018-01-10T11:25:50.413Z,-8.5
2018-01-10T11:27:00.127Z,-8.39
2018-01-10T11:28:09.901Z,-8.41
2018-01-10T11:29:19.895Z,-8.32
2018-01-10T11:30:29.608Z,-8.38
2018-01-10T11:31:39.589Z,-8.21
2018-01-10T11:32:49.570Z,-8.2
2018-01-10T11:33:59.284Z,-8.17
2018-01-10T11:35:09.266Z,-8.28
2018-01-10T11:36:19.244Z,-8.39
2018-01-10T11:37:29.326Z,-8.35
2018-01-10T11:38:39.046Z,-8.39
2018-01-10T11:39:48.768Z,-8.35
2018-01-10T11:40:58.752Z,-8.31
2018-01-10T11:42:08.211Z,-8.41
2018-01-10T11:43:17.662Z,-8.5
2018-01-10T11:44:27.641Z,-8.47
2018-01-10T11:45:37.413Z,-8.49
2018-01-10T11:46:47.209Z,-8.42
2018-01-10T11:47:57.189Z,-8.44
2018-01-10T11:49:07.219Z,-8.42
2018-01-10T11:50:17.198Z,-8.38
2018-01-10T11:51:27.191Z,-8.44
2018-01-10T11:52:36.909Z,-8.46
2018-01-10T11:53:46.359Z,-8.47
2018-01-10T11:54:56.446Z,-8.52
2018-01-10T11:56:06.170Z,-8.5
2018-01-10T11:57:15.889Z,-8.57
2018-01-10T11:58:25.864Z,-8.7
2018-01-10T11:59:35.312Z,-8.71
2018-01-10T12:00:45.287Z,-8.77
2018-01-10T12:01:55.265Z,-8.86
2018-01-10T12:03:04.982Z,-8.88
2018-01-10T12:04:14.691Z,-8.92
2018-01-10T12:05:24.664Z,-8.84
2018-01-10T12:06:34.634Z,-8.86
2018-01-10T12:07:44.341Z,-8.88
2018-01-10T12:08:54.318Z,-8.96
2018-01-10T12:10:04.047Z,-8.98
2018-01-10T12:11:13.767Z,-8.98
2018-01-10T12:12:23.477Z,-9.03
2018-01-10T12:13:33.188Z,-9.02
2018-01-10T12:14:43.187Z,-9.06
2018-01-10T12:15:53.360Z,-9.04
2018-01-10T12:17:03.332Z,-8.98
2018-01-10T12:18:13.311Z,-9.02
2018-01-10T12:19:23.019Z,-8.89
2018-01-10T12:20:32.994Z,-8.91
2018-01-10T12:21:42.970Z,-8.98
2018-01-10T12:22:52.684Z,-8.96
2018-01-10T12:24:02.655Z,-8.85
2018-01-10T12:25:12.375Z,-8.78
2018-01-10T12:26:22.349Z,-8.77
2018-01-10T12:27:31.262Z,-8.73
2018-01-10T12:28:41.232Z,-8.59
2018-01-10T12:29:51.041Z,-8.49
2018-01-10T12:31:01.017Z,-8.56
2018-01-10T12:32:10.467Z,-8.35
2018-01-10T12:33:20.180Z,-8.36
2018-01-10T12:34:29.629Z,-8.24
2018-01-10T12:35:39.079Z,-8.13
2018-01-10T12:36:48.787Z,-7.98
2018-01-10T12:37:58.500Z,-8.02
2018-01-10T12:39:07.948Z,-7.92
2018-01-10T12:40:17.930Z,-7.81
2018-01-10T12:41:27.428Z,-7.62
2018-01-10T12:42:36.882Z,-7.66
2018-01-10T12:43:46.330Z,-7.73
2018-01-10T12:44:55.777Z,-7.67
2018-01-10T12:46:04.959Z,-7.84
2018-01-10T12:47:14.439Z,-7.85
2018-01-10T12:48:24.440Z,-7.84
2018-01-10T12:49:33.884Z,-7.98
2018-01-10T12:50:43.598Z,-8.1
2018-01-10T12:51:53.587Z,-8.07
2018-01-10T12:53:03.879Z,-8.23
2018-01-10T12:54:13.597Z,-8.26
2018-01-10T12:55:23.052Z,-8.29
2018-01-10T12:56:32.770Z,-8.36
2018-01-10T12:57:41.948Z,-8.36
2018-01-10T12:58:51.655Z,-8.46
2018-01-10T13:00:01.375Z,-8.54
2018-01-10T13:01:10.557Z,-8.74
2018-01-10T13:02:20.272Z,-8.89
2018-01-10T13:03:29.720Z,-8.94
2018-01-10T13:04:39.166Z,-9.04
2018-01-10T13:05:48.964Z,-9.09
2018-01-10T13:06:58.677Z,-9.07
2018-01-10T13:08:07.863Z,-9.17
2018-01-10T13:09:16.786Z,-9.28
2018-01-10T13:10:26.498Z,-9.35
2018-01-10T13:11:35.949Z,-9.31
2018-01-10T13:12:45.707Z,-9.35
2018-01-10T13:13:55.181Z,-9.41
2018-01-10T13:15:05.175Z,-9.52
2018-01-10T13:16:14.146Z,-9.53
2018-01-10T13:17:23.917Z,-9.55
2018-01-10T13:18:33.633Z,-9.71
2018-01-10T13:19:42.816Z,-9.68
2018-01-10T13:20:52.264Z,-9.71
2018-01-10T13:22:01.972Z,-9.78
2018-01-10T13:23:11.419Z,-9.82
2018-01-10T13:24:21.398Z,-9.81
2018-01-10T13:25:31.107Z,-9.79
2018-01-10T13:26:40.551Z,-9.85
2018-01-10T13:27:50.273Z,-9.84
2018-01-10T13:28:59.735Z,-10.05
2018-01-10T13:30:09.446Z,-10.18
2018-01-10T13:31:18.640Z,-10.09
2018-01-10T13:32:28.657Z,-10.24
2018-01-10T13:33:38.108Z,-10.41
2018-01-10T13:34:47.556Z,-10.69
2018-01-10T13:35:57.038Z,-10.85
2018-01-10T13:37:06.231Z,-11
2018-01-10T13:38:15.730Z,-11.02
2018-01-10T13:39:25.184Z,-11.2
2018-01-10T13:40:34.634Z,-11.28
2018-01-10T13:41:44.344Z,-11.41
2018-01-10T13:42:54.391Z,-11.34
2018-01-10T13:44:03.887Z,-11.35
2018-01-10T13:45:12.802Z,-11.39
2018-01-10T13:46:22.519Z,-11.45
2018-01-10T13:47:31.965Z,-11.44
2018-01-10T13:48:41.728Z,-11.59
2018-01-10T13:49:51.703Z,-11.62
2018-01-10T13:51:01.415Z,-11.55
2018-01-10T13:52:10.873Z,-11.53
2018-01-10T13:53:20.589Z,-11.59
2018-01-10T13:54:30.565Z,-11.71
2018-01-10T13:55:40.320Z,-11.6
2018-01-10T13:56:50.294Z,-11.74
2018-01-10T13:58:00.033Z,-11.81
2018-01-10T13:59:10.029Z,-11.68
2018-01-10T14:00:19.750Z,-11.87
2018-01-10T14:01:29.750Z,-11.92
2018-01-10T14:02:39.729Z,-11.87
2018-01-10T14:03:49.172Z,-11.89
2018-01-10T14:04:58.614Z,-11.87
2018-01-10T14:06:08.593Z,-11.87
2018-01-10T14:07:18.573Z,-11.99
2018-01-10T14:08:28.024Z,-11.81
2018-01-10T14:09:37.204Z,-11.81
2018-01-10T14:10:46.909Z,-11.77
2018-01-10T14:11:56.884Z,-11.89
2018-01-10T14:13:06.871Z,-11.87
2018-01-10T14:14:16.053Z,-11.8
2018-01-10T14:15:26.027Z,-11.76
2018-01-10T14:16:36.007Z,-11.77
2018-01-10T14:17:45.985Z,-11.76
2018-01-10T14:18:55.959Z,-11.74
2018-01-10T14:20:06.095Z,-11.71
2018-01-10T14:21:15.806Z,-11.7
2018-01-10T14:22:25.512Z,-11.7
2018-01-10T14:23:35.222Z,-11.58
2018-01-10T14:24:45.194Z,-11.58
2018-01-10T14:25:55.165Z,-11.62
2018-01-10T14:27:05.142Z,-11.56
2018-01-10T14:28:15.122Z,-11.5
2018-01-10T14:29:24.572Z,-11.52
2018-01-10T14:30:34.031Z,-11.48
2018-01-10T14:31:43.743Z,-11.49
2018-01-10T14:32:53.770Z,-11.44
2018-01-10T14:34:03.753Z,-11.38
2018-01-10T14:35:13.861Z,-11.28
2018-01-10T14:36:23.834Z,-11.35
2018-01-10T14:37:33.538Z,-11.37
2018-01-10T14:38:43.534Z,-11.28
2018-01-10T14:39:53.507Z,-11.29
2018-01-10T14:41:03.555Z,-11.38